Terminal Aerodrome Forecast
Issued by NWS San Angelo, TX

Current Version | Previous Version | Text Only | Print | Product List | Glossary On
Versions: 1 2 3 4 5 6 7 8 9 10 11 12 13
084
FTUS44 KSJT 282355
TAFABI
TAF
KABI 282355Z 2900/2924 14010KT P6SM BKN250
     FM290300 15014G22KT P6SM BKN250
     FM290900 17013G20KT P6SM VCSH BKN035
     FM291200 18013G20KT P6SM BKN250
     FM291700 32017G26KT P6SM SCT050 BKN100=

USA.gov is the U.S. government's official web portal to all federal, state and local government web resources and services.